Huvudsida
METAR-TAF:

METAR-TAF

Flygplatser :

Kittilä flygplats

Kittilä, Finland

latitud: 67-42N, longitud: 024-51E, höjd: 196 m

Aktuellt väderrapport

Denna rapport gjordes för 21 minuter sedan, klockan 09:20 UTC
Vind 10 kt från sydväst, varierande mellan syd och väst
Temperatur 18°C
Fuktighet 45%
Tryck 1019 hPa
Sikt 10 km eller mer
Inga moln under 1 500 m eller inga cumulonimbus

METAR: EFKT 220920Z AUTO 22010KT 190V260 CAVOK 18/06 Q1019

Tid: 12:41 (09:41 UTC)

Väderprognos

Denna rapport gjordes för 1 timme och 20 minuter sedan, klockan 08:21 UTC
Prognos gäller från 22 kl. 09 UTC till 22 kl. 11 UTC
Vind 10 kt från sydväst
Sikt 10 km eller mer
Inga moln under 1 500 m eller inga cumulonimbus

TAF: EFKT 220821Z 2209/2211 22010KT CAVOK

Aktuella väderrapporter och prognoser från 4000 flygplatser (METAR- och TAF-rapporter).

De tillgängliga stationerna syns som gula och röda prickar på kartan.

För musen över prickarna för att se namnen på stationerna.

Klicka sedan för att få väderrapporter och prognoser.

För att ändra kartan: Klicka på de gröna knapparna med ett svart kors på för att zooma in; den gröna knappen med ett streck på för att zooma ut; eller på de gröna pilarna för angränsande kartor.


METAR-TAF: